sensor_id;sensor_type;location;lat;lon;timestamp;P1;durP1;ratioP1;P2;durP2;ratioP2
63016;SDS011;50274;45.640;11.756;2023-12-28T00:01:26;60.20;;;38.78;;
63016;SDS011;50274;45.640;11.756;2023-12-28T00:03:52;57.25;;;36.40;;
63016;SDS011;50274;45.640;11.756;2023-12-28T00:06:18;55.03;;;37.57;;
63016;SDS011;50274;45.640;11.756;2023-12-28T00:08:44;62.50;;;38.67;;
63016;SDS011;50274;45.640;11.756;2023-12-28T00:11:09;56.05;;;37.78;;
63016;SDS011;50274;45.640;11.756;2023-12-28T00:13:35;55.00;;;36.40;;
63016;SDS011;50274;45.640;11.756;2023-12-28T00:16:01;60.00;;;39.33;;
63016;SDS011;50274;45.640;11.756;2023-12-28T00:18:27;60.33;;;38.70;;
63016;SDS011;50274;45.640;11.756;2023-12-28T00:20:53;60.25;;;39.78;;
63016;SDS011;50274;45.640;11.756;2023-12-28T00:23:18;60.78;;;36.97;;
63016;SDS011;50274;45.640;11.756;2023-12-28T00:25:47;58.03;;;37.13;;
63016;SDS011;50274;45.640;11.756;2023-12-28T00:28:13;58.78;;;39.10;;
63016;SDS011;50274;45.640;11.756;2023-12-28T00:30:39;55.95;;;37.88;;
63016;SDS011;50274;45.640;11.756;2023-12-28T00:33:05;56.60;;;37.77;;
63016;SDS011;50274;45.640;11.756;2023-12-28T00:35:31;57.67;;;37.55;;
63016;SDS011;50274;45.640;11.756;2023-12-28T00:37:56;57.35;;;38.28;;
63016;SDS011;50274;45.640;11.756;2023-12-28T00:40:22;61.90;;;39.80;;
63016;SDS011;50274;45.640;11.756;2023-12-28T00:42:48;53.85;;;35.05;;
63016;SDS011;50274;45.640;11.756;2023-12-28T00:45:14;55.23;;;36.37;;
63016;SDS011;50274;45.640;11.756;2023-12-28T00:47:40;52.53;;;34.80;;
63016;SDS011;50274;45.640;11.756;2023-12-28T00:50:08;53.78;;;35.35;;
63016;SDS011;50274;45.640;11.756;2023-12-28T00:52:36;54.65;;;35.28;;
63016;SDS011;50274;45.640;11.756;2023-12-28T00:55:03;54.33;;;36.55;;
63016;SDS011;50274;45.640;11.756;2023-12-28T00:57:29;57.50;;;36.53;;
63016;SDS011;50274;45.640;11.756;2023-12-28T00:59:55;59.58;;;37.75;;
63016;SDS011;50274;45.640;11.756;2023-12-28T01:02:21;52.65;;;34.05;;
63016;SDS011;50274;45.640;11.756;2023-12-28T01:04:47;54.53;;;35.43;;
63016;SDS011;50274;45.640;11.756;2023-12-28T01:07:13;55.05;;;35.70;;
63016;SDS011;50274;45.640;11.756;2023-12-28T01:09:38;60.80;;;37.97;;
63016;SDS011;50274;45.640;11.756;2023-12-28T01:12:04;55.33;;;34.17;;
63016;SDS011;50274;45.640;11.756;2023-12-28T01:14:31;57.45;;;37.38;;
63016;SDS011;50274;45.640;11.756;2023-12-28T01:16:57;60.08;;;38.13;;
63016;SDS011;50274;45.640;11.756;2023-12-28T01:19:23;58.80;;;36.40;;
63016;SDS011;50274;45.640;11.756;2023-12-28T01:21:49;61.15;;;37.78;;
63016;SDS011;50274;45.640;11.756;2023-12-28T01:24:15;63.45;;;39.70;;
63016;SDS011;50274;45.640;11.756;2023-12-28T01:26:42;51.58;;;35.22;;
63016;SDS011;50274;45.640;11.756;2023-12-28T01:29:08;57.70;;;38.80;;
63016;SDS011;50274;45.640;11.756;2023-12-28T01:31:34;58.90;;;38.13;;
63016;SDS011;50274;45.640;11.756;2023-12-28T01:34:00;55.42;;;37.45;;
63016;SDS011;50274;45.640;11.756;2023-12-28T01:36:26;54.73;;;36.83;;
63016;SDS011;50274;45.640;11.756;2023-12-28T01:38:54;57.47;;;37.05;;
63016;SDS011;50274;45.640;11.756;2023-12-28T01:41:21;58.28;;;37.28;;
63016;SDS011;50274;45.640;11.756;2023-12-28T01:43:46;54.60;;;36.78;;
63016;SDS011;50274;45.640;11.756;2023-12-28T01:46:16;57.33;;;36.77;;
63016;SDS011;50274;45.640;11.756;2023-12-28T01:48:44;57.45;;;36.20;;
63016;SDS011;50274;45.640;11.756;2023-12-28T01:51:12;54.97;;;36.08;;
63016;SDS011;50274;45.640;11.756;2023-12-28T01:53:38;56.40;;;37.22;;
63016;SDS011;50274;45.640;11.756;2023-12-28T01:56:04;60.30;;;38.67;;
63016;SDS011;50274;45.640;11.756;2023-12-28T01:58:32;60.03;;;38.40;;
63016;SDS011;50274;45.640;11.756;2023-12-28T02:00:59;59.67;;;38.80;;
63016;SDS011;50274;45.640;11.756;2023-12-28T02:03:26;65.85;;;38.88;;
63016;SDS011;50274;45.640;11.756;2023-12-28T02:05:52;60.85;;;39.47;;
63016;SDS011;50274;45.640;11.756;2023-12-28T02:08:19;55.30;;;36.78;;
63016;SDS011;50274;45.640;11.756;2023-12-28T02:10:45;54.10;;;35.80;;
63016;SDS011;50274;45.640;11.756;2023-12-28T02:13:11;58.22;;;38.20;;
63016;SDS011;50274;45.640;11.756;2023-12-28T02:15:38;56.05;;;37.15;;
63016;SDS011;50274;45.640;11.756;2023-12-28T02:18:09;57.17;;;36.20;;
63016;SDS011;50274;45.640;11.756;2023-12-28T02:20:38;56.45;;;36.95;;
63016;SDS011;50274;45.640;11.756;2023-12-28T02:23:05;56.63;;;35.60;;
63016;SDS011;50274;45.640;11.756;2023-12-28T02:25:32;61.90;;;37.30;;
63016;SDS011;50274;45.640;11.756;2023-12-28T02:27:57;56.90;;;36.63;;
63016;SDS011;50274;45.640;11.756;2023-12-28T02:30:24;50.78;;;33.60;;
63016;SDS011;50274;45.640;11.756;2023-12-28T02:38:24;55.45;;;34.30;;
63016;SDS011;50274;45.640;11.756;2023-12-28T02:40:52;55.67;;;35.63;;
63016;SDS011;50274;45.640;11.756;2023-12-28T02:43:19;55.70;;;35.03;;
63016;SDS011;50274;45.640;11.756;2023-12-28T02:45:45;55.20;;;35.22;;
63016;SDS011;50274;45.640;11.756;2023-12-28T02:48:11;53.77;;;34.20;;
63016;SDS011;50274;45.640;11.756;2023-12-28T02:50:37;58.40;;;36.03;;
63016;SDS011;50274;45.640;11.756;2023-12-28T02:53:03;47.23;;;33.13;;
63016;SDS011;50274;45.640;11.756;2023-12-28T02:55:29;49.03;;;32.90;;
63016;SDS011;50274;45.640;11.756;2023-12-28T02:57:56;52.53;;;33.75;;
63016;SDS011;50274;45.640;11.756;2023-12-28T03:00:25;50.15;;;33.35;;
63016;SDS011;50274;45.640;11.756;2023-12-28T03:02:51;50.13;;;33.23;;
63016;SDS011;50274;45.640;11.756;2023-12-28T03:05:17;52.42;;;33.42;;
63016;SDS011;50274;45.640;11.756;2023-12-28T03:07:43;49.97;;;34.15;;
63016;SDS011;50274;45.640;11.756;2023-12-28T03:10:09;55.83;;;35.90;;
63016;SDS011;50274;45.640;11.756;2023-12-28T03:12:38;48.45;;;31.33;;
63016;SDS011;50274;45.640;11.756;2023-12-28T03:15:04;51.53;;;33.70;;
63016;SDS011;50274;45.640;11.756;2023-12-28T03:17:30;49.60;;;32.13;;
63016;SDS011;50274;45.640;11.756;2023-12-28T03:20:00;54.10;;;34.97;;
63016;SDS011;50274;45.640;11.756;2023-12-28T03:22:26;51.92;;;33.92;;
63016;SDS011;50274;45.640;11.756;2023-12-28T03:24:52;45.93;;;31.03;;
63016;SDS011;50274;45.640;11.756;2023-12-28T03:27:18;51.65;;;33.13;;
63016;SDS011;50274;45.640;11.756;2023-12-28T03:29:43;48.93;;;33.57;;
63016;SDS011;50274;45.640;11.756;2023-12-28T03:32:09;53.35;;;32.15;;
63016;SDS011;50274;45.640;11.756;2023-12-28T03:34:35;51.22;;;33.50;;
63016;SDS011;50274;45.640;11.756;2023-12-28T03:37:01;51.53;;;34.63;;
63016;SDS011;50274;45.640;11.756;2023-12-28T03:39:27;49.63;;;34.33;;
63016;SDS011;50274;45.640;11.756;2023-12-28T03:41:53;51.28;;;34.25;;
63016;SDS011;50274;45.640;11.756;2023-12-28T03:44:19;47.60;;;33.58;;
63016;SDS011;50274;45.640;11.756;2023-12-28T03:46:49;50.20;;;31.40;;
63016;SDS011;50274;45.640;11.756;2023-12-28T03:49:16;46.85;;;30.70;;
63016;SDS011;50274;45.640;11.756;2023-12-28T03:51:43;50.53;;;32.50;;
63016;SDS011;50274;45.640;11.756;2023-12-28T03:54:09;49.60;;;32.90;;
63016;SDS011;50274;45.640;11.756;2023-12-28T03:56:34;51.60;;;33.53;;
63016;SDS011;50274;45.640;11.756;2023-12-28T03:59:00;51.53;;;33.05;;
63016;SDS011;50274;45.640;11.756;2023-12-28T04:01:26;49.85;;;33.17;;
63016;SDS011;50274;45.640;11.756;2023-12-28T04:03:52;53.88;;;33.95;;
63016;SDS011;50274;45.640;11.756;2023-12-28T04:06:18;49.97;;;33.30;;
63016;SDS011;50274;45.640;11.756;2023-12-28T04:08:44;52.95;;;33.33;;
63016;SDS011;50274;45.640;11.756;2023-12-28T04:11:10;50.60;;;33.95;;
63016;SDS011;50274;45.640;11.756;2023-12-28T04:13:36;45.17;;;30.90;;
63016;SDS011;50274;45.640;11.756;2023-12-28T04:16:02;49.60;;;32.72;;
63016;SDS011;50274;45.640;11.756;2023-12-28T04:18:28;47.53;;;32.53;;
63016;SDS011;50274;45.640;11.756;2023-12-28T04:20:54;47.70;;;32.33;;
63016;SDS011;50274;45.640;11.756;2023-12-28T04:23:20;47.57;;;30.97;;
63016;SDS011;50274;45.640;11.756;2023-12-28T04:25:46;50.20;;;33.65;;
63016;SDS011;50274;45.640;11.756;2023-12-28T04:28:12;52.35;;;33.78;;
63016;SDS011;50274;45.640;11.756;2023-12-28T04:30:38;50.95;;;35.15;;
63016;SDS011;50274;45.640;11.756;2023-12-28T04:33:04;49.40;;;32.33;;
63016;SDS011;50274;45.640;11.756;2023-12-28T04:35:30;46.90;;;32.13;;
63016;SDS011;50274;45.640;11.756;2023-12-28T04:37:55;47.70;;;32.27;;
63016;SDS011;50274;45.640;11.756;2023-12-28T04:40:21;51.90;;;32.87;;
63016;SDS011;50274;45.640;11.756;2023-12-28T04:42:47;46.42;;;31.30;;
63016;SDS011;50274;45.640;11.756;2023-12-28T04:45:13;43.83;;;31.27;;
63016;SDS011;50274;45.640;11.756;2023-12-28T04:47:39;48.63;;;32.90;;
63016;SDS011;50274;45.640;11.756;2023-12-28T04:50:05;48.55;;;32.85;;
63016;SDS011;50274;45.640;11.756;2023-12-28T04:52:32;44.08;;;29.45;;
63016;SDS011;50274;45.640;11.756;2023-12-28T04:54:58;50.63;;;32.10;;
63016;SDS011;50274;45.640;11.756;2023-12-28T04:57:23;46.85;;;30.52;;
63016;SDS011;50274;45.640;11.756;2023-12-28T04:59:51;42.55;;;29.50;;
63016;SDS011;50274;45.640;11.756;2023-12-28T05:02:16;43.38;;;28.92;;
63016;SDS011;50274;45.640;11.756;2023-12-28T05:04:42;46.10;;;31.50;;
63016;SDS011;50274;45.640;11.756;2023-12-28T05:07:08;43.50;;;30.30;;
63016;SDS011;50274;45.640;11.756;2023-12-28T05:09:34;48.30;;;31.90;;
63016;SDS011;50274;45.640;11.756;2023-12-28T05:12:00;50.73;;;32.53;;
63016;SDS011;50274;45.640;11.756;2023-12-28T05:14:26;45.45;;;30.42;;
63016;SDS011;50274;45.640;11.756;2023-12-28T05:16:51;47.97;;;30.17;;
63016;SDS011;50274;45.640;11.756;2023-12-28T05:19:17;42.55;;;28.50;;
63016;SDS011;50274;45.640;11.756;2023-12-28T05:21:43;42.25;;;28.02;;
63016;SDS011;50274;45.640;11.756;2023-12-28T05:24:09;44.73;;;29.60;;
63016;SDS011;50274;45.640;11.756;2023-12-28T05:26:35;39.30;;;27.83;;
63016;SDS011;50274;45.640;11.756;2023-12-28T05:29:01;42.65;;;28.30;;
63016;SDS011;50274;45.640;11.756;2023-12-28T05:31:26;40.07;;;26.87;;
63016;SDS011;50274;45.640;11.756;2023-12-28T05:33:52;40.10;;;27.98;;
63016;SDS011;50274;45.640;11.756;2023-12-28T05:36:18;39.97;;;27.67;;
63016;SDS011;50274;45.640;11.756;2023-12-28T05:38:44;37.20;;;25.27;;
63016;SDS011;50274;45.640;11.756;2023-12-28T05:41:10;42.53;;;27.20;;
63016;SDS011;50274;45.640;11.756;2023-12-28T05:43:36;40.80;;;26.23;;
63016;SDS011;50274;45.640;11.756;2023-12-28T05:46:03;40.20;;;26.67;;
63016;SDS011;50274;45.640;11.756;2023-12-28T05:48:29;36.92;;;26.42;;
63016;SDS011;50274;45.640;11.756;2023-12-28T05:50:56;40.63;;;27.77;;
63016;SDS011;50274;45.640;11.756;2023-12-28T05:53:23;43.85;;;28.05;;
63016;SDS011;50274;45.640;11.756;2023-12-28T05:55:50;38.53;;;26.27;;
63016;SDS011;50274;45.640;11.756;2023-12-28T05:58:15;37.40;;;26.92;;
63016;SDS011;50274;45.640;11.756;2023-12-28T06:00:41;39.47;;;26.35;;
63016;SDS011;50274;45.640;11.756;2023-12-28T06:03:08;38.67;;;26.87;;
63016;SDS011;50274;45.640;11.756;2023-12-28T06:05:33;39.90;;;26.38;;
63016;SDS011;50274;45.640;11.756;2023-12-28T06:07:59;37.80;;;26.00;;
63016;SDS011;50274;45.640;11.756;2023-12-28T06:10:25;41.37;;;26.80;;
63016;SDS011;50274;45.640;11.756;2023-12-28T06:12:51;37.30;;;24.85;;
63016;SDS011;50274;45.640;11.756;2023-12-28T06:15:17;40.17;;;25.70;;
63016;SDS011;50274;45.640;11.756;2023-12-28T06:17:42;39.90;;;26.43;;
63016;SDS011;50274;45.640;11.756;2023-12-28T06:20:08;35.53;;;25.23;;
63016;SDS011;50274;45.640;11.756;2023-12-28T06:22:38;38.97;;;25.73;;
63016;SDS011;50274;45.640;11.756;2023-12-28T06:25:04;36.50;;;24.47;;
63016;SDS011;50274;45.640;11.756;2023-12-28T06:27:31;39.08;;;25.05;;
63016;SDS011;50274;45.640;11.756;2023-12-28T06:29:57;33.30;;;21.48;;
63016;SDS011;50274;45.640;11.756;2023-12-28T06:32:22;38.70;;;25.20;;
63016;SDS011;50274;45.640;11.756;2023-12-28T06:34:48;35.07;;;24.33;;
63016;SDS011;50274;45.640;11.756;2023-12-28T06:37:14;34.13;;;22.75;;
63016;SDS011;50274;45.640;11.756;2023-12-28T06:39:40;34.55;;;21.95;;
63016;SDS011;50274;45.640;11.756;2023-12-28T06:42:06;36.30;;;22.47;;
63016;SDS011;50274;45.640;11.756;2023-12-28T06:44:32;34.45;;;22.65;;
63016;SDS011;50274;45.640;11.756;2023-12-28T06:46:58;32.53;;;21.27;;
63016;SDS011;50274;45.640;11.756;2023-12-28T06:49:24;31.63;;;21.37;;
63016;SDS011;50274;45.640;11.756;2023-12-28T06:51:50;32.80;;;21.33;;
63016;SDS011;50274;45.640;11.756;2023-12-28T06:54:16;29.75;;;19.20;;
63016;SDS011;50274;45.640;11.756;2023-12-28T06:56:42;30.43;;;20.13;;
63016;SDS011;50274;45.640;11.756;2023-12-28T06:59:08;31.33;;;20.20;;
63016;SDS011;50274;45.640;11.756;2023-12-28T07:01:40;33.42;;;20.55;;
63016;SDS011;50274;45.640;11.756;2023-12-28T07:04:06;30.77;;;20.38;;
63016;SDS011;50274;45.640;11.756;2023-12-28T07:06:32;28.70;;;19.38;;
63016;SDS011;50274;45.640;11.756;2023-12-28T07:08:58;29.30;;;18.97;;
63016;SDS011;50274;45.640;11.756;2023-12-28T07:11:24;27.42;;;18.70;;
63016;SDS011;50274;45.640;11.756;2023-12-28T07:13:51;29.38;;;17.30;;
63016;SDS011;50274;45.640;11.756;2023-12-28T07:16:18;26.17;;;17.17;;
63016;SDS011;50274;45.640;11.756;2023-12-28T07:18:44;24.67;;;16.50;;
63016;SDS011;50274;45.640;11.756;2023-12-28T07:21:10;29.05;;;17.48;;
63016;SDS011;50274;45.640;11.756;2023-12-28T07:23:36;26.08;;;16.98;;
63016;SDS011;50274;45.640;11.756;2023-12-28T07:26:02;26.13;;;16.33;;
63016;SDS011;50274;45.640;11.756;2023-12-28T07:28:29;26.63;;;17.10;;
63016;SDS011;50274;45.640;11.756;2023-12-28T07:30:54;23.63;;;16.27;;
63016;SDS011;50274;45.640;11.756;2023-12-28T07:33:20;24.70;;;15.82;;
63016;SDS011;50274;45.640;11.756;2023-12-28T07:35:46;23.27;;;14.88;;
63016;SDS011;50274;45.640;11.756;2023-12-28T07:38:12;25.60;;;15.87;;
63016;SDS011;50274;45.640;11.756;2023-12-28T07:40:38;22.83;;;14.57;;
63016;SDS011;50274;45.640;11.756;2023-12-28T07:43:04;24.67;;;15.13;;
63016;SDS011;50274;45.640;11.756;2023-12-28T07:45:30;24.87;;;14.80;;
63016;SDS011;50274;45.640;11.756;2023-12-28T07:48:01;23.25;;;15.50;;
63016;SDS011;50274;45.640;11.756;2023-12-28T07:50:28;23.15;;;15.15;;
63016;SDS011;50274;45.640;11.756;2023-12-28T07:52:54;21.97;;;14.43;;
63016;SDS011;50274;45.640;11.756;2023-12-28T07:55:20;22.13;;;13.70;;
63016;SDS011;50274;45.640;11.756;2023-12-28T07:57:46;21.45;;;14.07;;
63016;SDS011;50274;45.640;11.756;2023-12-28T08:00:12;22.77;;;15.10;;
63016;SDS011;50274;45.640;11.756;2023-12-28T08:02:38;23.60;;;15.13;;
63016;SDS011;50274;45.640;11.756;2023-12-28T08:05:04;24.35;;;15.50;;
63016;SDS011;50274;45.640;11.756;2023-12-28T08:07:30;22.90;;;15.63;;
63016;SDS011;50274;45.640;11.756;2023-12-28T08:09:56;24.03;;;16.13;;
63016;SDS011;50274;45.640;11.756;2023-12-28T08:12:21;24.40;;;16.40;;
63016;SDS011;50274;45.640;11.756;2023-12-28T08:14:49;29.08;;;19.40;;
63016;SDS011;50274;45.640;11.756;2023-12-28T08:17:15;27.90;;;17.93;;
63016;SDS011;50274;45.640;11.756;2023-12-28T08:19:44;30.63;;;18.95;;
63016;SDS011;50274;45.640;11.756;2023-12-28T08:22:10;32.70;;;20.38;;
63016;SDS011;50274;45.640;11.756;2023-12-28T08:24:36;33.45;;;21.08;;
63016;SDS011;50274;45.640;11.756;2023-12-28T08:27:02;36.75;;;22.30;;
63016;SDS011;50274;45.640;11.756;2023-12-28T08:29:28;36.97;;;22.37;;
63016;SDS011;50274;45.640;11.756;2023-12-28T08:31:54;42.20;;;24.48;;
63016;SDS011;50274;45.640;11.756;2023-12-28T08:34:20;45.30;;;26.17;;
63016;SDS011;50274;45.640;11.756;2023-12-28T08:36:46;44.28;;;26.77;;
63016;SDS011;50274;45.640;11.756;2023-12-28T08:39:12;39.33;;;24.50;;
63016;SDS011;50274;45.640;11.756;2023-12-28T08:41:38;47.05;;;27.63;;
63016;SDS011;50274;45.640;11.756;2023-12-28T08:44:04;41.53;;;25.95;;
63016;SDS011;50274;45.640;11.756;2023-12-28T08:46:30;44.13;;;25.17;;
63016;SDS011;50274;45.640;11.756;2023-12-28T08:48:56;41.25;;;27.48;;
63016;SDS011;50274;45.640;11.756;2023-12-28T08:51:22;44.60;;;27.25;;
63016;SDS011;50274;45.640;11.756;2023-12-28T08:53:48;42.28;;;26.73;;
63016;SDS011;50274;45.640;11.756;2023-12-28T08:56:17;45.57;;;27.83;;
63016;SDS011;50274;45.640;11.756;2023-12-28T08:58:46;41.88;;;27.13;;
63016;SDS011;50274;45.640;11.756;2023-12-28T09:01:16;40.83;;;28.15;;
63016;SDS011;50274;45.640;11.756;2023-12-28T09:03:50;54.28;;;33.60;;
63016;SDS011;50274;45.640;11.756;2023-12-28T09:06:17;45.90;;;30.20;;
63016;SDS011;50274;45.640;11.756;2023-12-28T09:08:44;42.15;;;25.67;;
63016;SDS011;50274;45.640;11.756;2023-12-28T09:11:12;41.60;;;26.00;;
63016;SDS011;50274;45.640;11.756;2023-12-28T09:13:41;44.05;;;26.00;;
63016;SDS011;50274;45.640;11.756;2023-12-28T09:16:07;37.25;;;25.45;;
63016;SDS011;50274;45.640;11.756;2023-12-28T09:18:35;41.87;;;27.67;;
63016;SDS011;50274;45.640;11.756;2023-12-28T09:21:05;43.92;;;26.92;;
63016;SDS011;50274;45.640;11.756;2023-12-28T09:23:34;42.97;;;26.42;;
63016;SDS011;50274;45.640;11.756;2023-12-28T09:26:01;43.08;;;26.58;;
63016;SDS011;50274;45.640;11.756;2023-12-28T09:28:28;36.15;;;24.17;;
63016;SDS011;50274;45.640;11.756;2023-12-28T09:30:55;43.50;;;26.70;;
63016;SDS011;50274;45.640;11.756;2023-12-28T09:33:21;38.00;;;25.13;;
63016;SDS011;50274;45.640;11.756;2023-12-28T09:35:47;38.60;;;24.60;;
63016;SDS011;50274;45.640;11.756;2023-12-28T09:38:14;38.15;;;23.95;;
63016;SDS011;50274;45.640;11.756;2023-12-28T09:40:43;38.33;;;23.63;;
63016;SDS011;50274;45.640;11.756;2023-12-28T09:43:13;32.58;;;20.77;;
63016;SDS011;50274;45.640;11.756;2023-12-28T09:45:50;36.63;;;24.73;;
63016;SDS011;50274;45.640;11.756;2023-12-28T09:48:16;35.25;;;23.45;;
63016;SDS011;50274;45.640;11.756;2023-12-28T09:50:52;37.25;;;23.27;;
63016;SDS011;50274;45.640;11.756;2023-12-28T09:53:22;35.80;;;24.17;;
63016;SDS011;50274;45.640;11.756;2023-12-28T09:55:49;34.63;;;22.90;;
63016;SDS011;50274;45.640;11.756;2023-12-28T09:58:17;34.38;;;22.58;;
63016;SDS011;50274;45.640;11.756;2023-12-28T10:00:45;29.48;;;20.38;;
63016;SDS011;50274;45.640;11.756;2023-12-28T10:03:14;31.88;;;21.20;;
63016;SDS011;50274;45.640;11.756;2023-12-28T10:05:42;31.30;;;21.07;;
63016;SDS011;50274;45.640;11.756;2023-12-28T10:08:11;32.45;;;20.00;;
63016;SDS011;50274;45.640;11.756;2023-12-28T10:10:41;30.70;;;21.05;;
63016;SDS011;50274;45.640;11.756;2023-12-28T10:13:08;35.15;;;23.05;;
63016;SDS011;50274;45.640;11.756;2023-12-28T10:15:37;36.90;;;22.75;;
63016;SDS011;50274;45.640;11.756;2023-12-28T10:18:05;37.77;;;25.57;;
63016;SDS011;50274;45.640;11.756;2023-12-28T10:20:31;35.47;;;24.35;;
63016;SDS011;50274;45.640;11.756;2023-12-28T10:22:58;35.45;;;23.50;;
63016;SDS011;50274;45.640;11.756;2023-12-28T10:25:26;35.70;;;22.42;;
63016;SDS011;50274;45.640;11.756;2023-12-28T10:27:52;35.28;;;22.33;;
63016;SDS011;50274;45.640;11.756;2023-12-28T10:30:21;32.00;;;21.50;;
63016;SDS011;50274;45.640;11.756;2023-12-28T10:32:47;31.23;;;20.15;;
63016;SDS011;50274;45.640;11.756;2023-12-28T10:35:14;30.33;;;20.17;;
63016;SDS011;50274;45.640;11.756;2023-12-28T10:37:40;29.98;;;18.50;;
63016;SDS011;50274;45.640;11.756;2023-12-28T10:40:13;32.92;;;20.50;;
63016;SDS011;50274;45.640;11.756;2023-12-28T10:42:52;27.37;;;18.67;;
63016;SDS011;50274;45.640;11.756;2023-12-28T10:45:34;37.22;;;21.15;;
63016;SDS011;50274;45.640;11.756;2023-12-28T10:56:20;30.47;;;19.63;;
63016;SDS011;50274;45.640;11.756;2023-12-28T10:58:58;31.17;;;18.67;;
63016;SDS011;50274;45.640;11.756;2023-12-28T11:01:35;28.80;;;19.02;;
63016;SDS011;50274;45.640;11.756;2023-12-28T11:04:09;32.35;;;19.23;;
63016;SDS011;50274;45.640;11.756;2023-12-28T11:07:02;31.80;;;20.63;;
63016;SDS011;50274;45.640;11.756;2023-12-28T11:09:32;30.30;;;18.40;;
63016;SDS011;50274;45.640;11.756;2023-12-28T11:12:02;28.52;;;18.63;;
63016;SDS011;50274;45.640;11.756;2023-12-28T11:14:33;29.63;;;17.73;;
63016;SDS011;50274;45.640;11.756;2023-12-28T11:17:02;27.90;;;17.50;;
63016;SDS011;50274;45.640;11.756;2023-12-28T11:19:29;22.42;;;15.55;;
63016;SDS011;50274;45.640;11.756;2023-12-28T11:21:59;28.33;;;16.83;;
63016;SDS011;50274;45.640;11.756;2023-12-28T11:24:27;24.50;;;16.42;;
63016;SDS011;50274;45.640;11.756;2023-12-28T11:26:54;27.55;;;16.83;;
63016;SDS011;50274;45.640;11.756;2023-12-28T11:29:21;23.65;;;15.88;;
63016;SDS011;50274;45.640;11.756;2023-12-28T11:31:54;25.92;;;15.98;;
63016;SDS011;50274;45.640;11.756;2023-12-28T11:34:29;27.33;;;16.13;;
63016;SDS011;50274;45.640;11.756;2023-12-28T11:37:06;21.63;;;14.38;;
63016;SDS011;50274;45.640;11.756;2023-12-28T11:39:35;24.98;;;15.43;;
63016;SDS011;50274;45.640;11.756;2023-12-28T11:42:07;25.92;;;17.25;;
63016;SDS011;50274;45.640;11.756;2023-12-28T11:44:39;26.35;;;16.88;;
63016;SDS011;50274;45.640;11.756;2023-12-28T11:47:22;24.93;;;17.27;;
63016;SDS011;50274;45.640;11.756;2023-12-28T11:49:49;26.33;;;17.13;;
63016;SDS011;50274;45.640;11.756;2023-12-28T11:52:23;28.52;;;16.92;;
63016;SDS011;50274;45.640;11.756;2023-12-28T11:54:51;24.13;;;15.60;;
63016;SDS011;50274;45.640;11.756;2023-12-28T11:57:17;24.08;;;15.98;;
63016;SDS011;50274;45.640;11.756;2023-12-28T11:59:43;25.13;;;16.37;;
63016;SDS011;50274;45.640;11.756;2023-12-28T12:02:09;26.80;;;17.08;;
63016;SDS011;50274;45.640;11.756;2023-12-28T12:04:36;23.65;;;15.98;;
63016;SDS011;50274;45.640;11.756;2023-12-28T12:07:02;24.05;;;15.68;;
63016;SDS011;50274;45.640;11.756;2023-12-28T12:09:29;23.73;;;16.55;;
63016;SDS011;50274;45.640;11.756;2023-12-28T12:12:00;24.97;;;16.73;;
63016;SDS011;50274;45.640;11.756;2023-12-28T12:14:26;27.45;;;17.38;;
63016;SDS011;50274;45.640;11.756;2023-12-28T12:16:56;24.27;;;15.25;;
63016;SDS011;50274;45.640;11.756;2023-12-28T12:19:25;27.67;;;16.48;;
63016;SDS011;50274;45.640;11.756;2023-12-28T12:21:52;25.58;;;16.65;;
63016;SDS011;50274;45.640;11.756;2023-12-28T12:24:19;25.70;;;16.33;;
63016;SDS011;50274;45.640;11.756;2023-12-28T12:26:45;24.73;;;16.70;;
63016;SDS011;50274;45.640;11.756;2023-12-28T12:29:14;24.55;;;15.98;;
63016;SDS011;50274;45.640;11.756;2023-12-28T12:31:40;27.60;;;16.48;;
63016;SDS011;50274;45.640;11.756;2023-12-28T12:34:08;27.63;;;17.43;;
63016;SDS011;50274;45.640;11.756;2023-12-28T12:36:34;27.17;;;16.75;;
63016;SDS011;50274;45.640;11.756;2023-12-28T12:39:01;24.20;;;15.15;;
63016;SDS011;50274;45.640;11.756;2023-12-28T12:41:28;22.88;;;15.25;;
63016;SDS011;50274;45.640;11.756;2023-12-28T12:43:54;25.88;;;15.52;;
63016;SDS011;50274;45.640;11.756;2023-12-28T12:46:21;24.57;;;15.03;;
63016;SDS011;50274;45.640;11.756;2023-12-28T12:48:56;25.50;;;16.30;;
63016;SDS011;50274;45.640;11.756;2023-12-28T12:51:23;25.27;;;15.38;;
63016;SDS011;50274;45.640;11.756;2023-12-28T12:53:59;26.05;;;14.95;;
63016;SDS011;50274;45.640;11.756;2023-12-28T12:56:26;24.73;;;15.95;;
63016;SDS011;50274;45.640;11.756;2023-12-28T12:58:53;25.50;;;15.93;;
63016;SDS011;50274;45.640;11.756;2023-12-28T13:01:20;24.05;;;15.68;;
63016;SDS011;50274;45.640;11.756;2023-12-28T13:03:46;22.10;;;14.35;;
63016;SDS011;50274;45.640;11.756;2023-12-28T13:06:12;24.45;;;14.88;;
63016;SDS011;50274;45.640;11.756;2023-12-28T13:08:38;21.20;;;13.50;;
63016;SDS011;50274;45.640;11.756;2023-12-28T13:11:04;24.02;;;15.10;;
63016;SDS011;50274;45.640;11.756;2023-12-28T13:13:33;24.27;;;16.08;;
63016;SDS011;50274;45.640;11.756;2023-12-28T13:16:00;26.60;;;16.70;;
63016;SDS011;50274;45.640;11.756;2023-12-28T13:18:27;26.10;;;17.93;;
63016;SDS011;50274;45.640;11.756;2023-12-28T13:20:52;26.00;;;16.75;;
63016;SDS011;50274;45.640;11.756;2023-12-28T13:23:18;25.65;;;16.73;;
63016;SDS011;50274;45.640;11.756;2023-12-28T13:25:44;27.00;;;16.27;;
63016;SDS011;50274;45.640;11.756;2023-12-28T13:28:10;24.63;;;16.52;;
63016;SDS011;50274;45.640;11.756;2023-12-28T13:30:39;29.17;;;16.90;;
63016;SDS011;50274;45.640;11.756;2023-12-28T13:33:05;25.27;;;16.08;;
63016;SDS011;50274;45.640;11.756;2023-12-28T13:35:33;25.10;;;15.43;;
63016;SDS011;50274;45.640;11.756;2023-12-28T13:37:59;22.10;;;13.98;;
63016;SDS011;50274;45.640;11.756;2023-12-28T13:40:30;20.80;;;13.60;;
63016;SDS011;50274;45.640;11.756;2023-12-28T13:42:56;22.02;;;13.93;;
63016;SDS011;50274;45.640;11.756;2023-12-28T13:45:22;25.70;;;14.57;;
63016;SDS011;50274;45.640;11.756;2023-12-28T13:47:48;20.67;;;13.73;;
63016;SDS011;50274;45.640;11.756;2023-12-28T13:50:14;21.67;;;14.00;;
63016;SDS011;50274;45.640;11.756;2023-12-28T13:52:40;24.77;;;14.38;;
63016;SDS011;50274;45.640;11.756;2023-12-28T13:55:06;21.50;;;14.67;;
63016;SDS011;50274;45.640;11.756;2023-12-28T13:57:32;23.90;;;14.65;;
63016;SDS011;50274;45.640;11.756;2023-12-28T13:59:58;23.85;;;16.15;;
63016;SDS011;50274;45.640;11.756;2023-12-28T14:02:26;21.50;;;13.93;;
63016;SDS011;50274;45.640;11.756;2023-12-28T14:04:52;21.48;;;14.02;;
63016;SDS011;50274;45.640;11.756;2023-12-28T14:07:21;22.67;;;14.30;;
63016;SDS011;50274;45.640;11.756;2023-12-28T14:09:47;20.35;;;13.55;;
63016;SDS011;50274;45.640;11.756;2023-12-28T14:12:13;22.30;;;15.20;;
63016;SDS011;50274;45.640;11.756;2023-12-28T14:14:38;20.85;;;14.75;;
63016;SDS011;50274;45.640;11.756;2023-12-28T14:17:04;23.05;;;14.50;;
63016;SDS011;50274;45.640;11.756;2023-12-28T14:19:30;21.13;;;13.00;;
63016;SDS011;50274;45.640;11.756;2023-12-28T14:21:57;21.67;;;14.30;;